createdAt,value
2019-06-08T00:01:28.076Z,45.64
2019-06-08T00:03:58.084Z,45.66
2019-06-08T00:06:28.123Z,45.78
2019-06-08T00:08:58.196Z,45.97
2019-06-08T00:11:28.094Z,45.64
2019-06-08T00:13:58.096Z,45.76
2019-06-08T00:16:28.079Z,46.20
2019-06-08T00:18:58.161Z,45.99
2019-06-08T00:21:28.137Z,46.53
2019-06-08T00:23:59.246Z,46.35
2019-06-08T00:26:29.223Z,46.87
2019-06-08T00:28:59.231Z,46.81
2019-06-08T00:31:29.201Z,46.87
2019-06-08T00:33:59.213Z,47.18
2019-06-08T00:36:29.215Z,47.34
2019-06-08T00:38:59.196Z,47.12
2019-06-08T00:41:29.201Z,46.84
2019-06-08T00:43:59.135Z,47.15
2019-06-08T00:46:30.325Z,46.83
2019-06-08T00:49:00.290Z,46.79
2019-06-08T00:51:30.364Z,47.04
2019-06-08T00:54:00.364Z,47.05
2019-06-08T00:56:30.346Z,47.04
2019-06-08T00:59:00.353Z,47.24
2019-06-08T01:01:30.887Z,47.29
2019-06-08T01:04:01.122Z,46.10
2019-06-08T01:06:31.136Z,45.45
2019-06-08T01:09:01.113Z,45.24
2019-06-08T01:11:32.988Z,44.73
2019-06-08T01:14:03.627Z,42.93
2019-06-08T01:16:33.616Z,41.56
2019-06-08T01:19:03.616Z,40.78
2019-06-08T01:21:33.623Z,40.81
2019-06-08T01:24:04.566Z,40.95
2019-06-08T01:26:34.647Z,40.49
2019-06-08T01:29:04.628Z,40.46
2019-06-08T01:31:34.641Z,40.43
2019-06-08T01:34:04.609Z,40.51
2019-06-08T01:36:34.623Z,39.94
2019-06-08T01:39:07.100Z,39.18
2019-06-08T01:41:37.110Z,38.60
2019-06-08T01:44:07.084Z,38.59
2019-06-08T01:46:37.163Z,38.48
2019-06-08T01:49:07.202Z,38.91
2019-06-08T01:51:37.212Z,38.45
2019-06-08T01:54:07.268Z,38.27
2019-06-08T01:56:37.268Z,38.09
2019-06-08T01:59:07.308Z,38.60
2019-06-08T02:01:37.322Z,37.99
2019-06-08T02:04:07.290Z,38.64
2019-06-08T02:06:37.375Z,38.95
2019-06-08T02:09:09.352Z,39.04
2019-06-08T02:11:39.452Z,37.96
2019-06-08T02:14:09.424Z,37.98
2019-06-08T02:16:40.502Z,37.96
2019-06-08T02:19:10.562Z,37.93
2019-06-08T02:21:40.570Z,37.99
2019-06-08T02:24:11.649Z,38.38
2019-06-08T02:26:41.624Z,38.48
2019-06-08T02:29:11.629Z,38.45
2019-06-08T02:31:42.060Z,38.56
2019-06-08T02:34:12.172Z,38.65
2019-06-08T02:36:43.101Z,38.70
2019-06-08T02:39:13.114Z,38.82
2019-06-08T02:41:43.080Z,38.16
2019-06-08T02:44:13.090Z,37.84
2019-06-08T02:46:43.073Z,37.64
2019-06-08T02:49:13.075Z,37.83
2019-06-08T02:51:44.428Z,37.89
2019-06-08T02:54:14.422Z,38.17
2019-06-08T02:56:47.768Z,37.73
2019-06-08T02:59:20.671Z,38.18
2019-06-08T03:01:52.964Z,38.20
2019-06-08T03:04:24.249Z,38.01
2019-06-08T03:06:55.862Z,38.30
2019-06-08T03:09:27.726Z,38.46
2019-06-08T03:11:58.099Z,38.67
2019-06-08T03:14:28.111Z,38.71
2019-06-08T03:16:58.084Z,38.38
2019-06-08T03:19:28.100Z,38.37
2019-06-08T03:21:59.047Z,38.52
2019-06-08T03:24:29.049Z,38.42
2019-06-08T03:26:59.100Z,38.90
2019-06-08T03:29:29.110Z,38.68
2019-06-08T03:31:59.005Z,38.89
2019-06-08T03:34:29.017Z,39.01
2019-06-08T03:36:58.990Z,38.69
2019-06-08T03:39:28.992Z,39.07
2019-06-08T03:41:58.961Z,38.70
2019-06-08T03:44:28.974Z,38.89
2019-06-08T03:47:00.115Z,38.87
2019-06-08T03:49:42.803Z,38.91
2019-06-08T03:52:01.729Z,39.24
2019-06-08T03:54:31.738Z,39.40
2019-06-08T03:57:01.718Z,39.21
2019-06-08T03:59:31.633Z,39.25
2019-06-08T04:02:01.612Z,39.57
2019-06-08T04:04:31.622Z,39.26
2019-06-08T04:07:01.538Z,39.56
2019-06-08T04:09:31.535Z,39.76
2019-06-08T04:12:01.552Z,39.61
2019-06-08T04:14:31.597Z,39.46
2019-06-08T04:17:01.521Z,40.06
2019-06-08T04:19:31.422Z,40.32
2019-06-08T04:22:01.430Z,39.48
2019-06-08T04:24:31.410Z,39.78
2019-06-08T04:27:01.342Z,39.68
2019-06-08T04:29:31.303Z,39.55
2019-06-08T04:32:01.311Z,39.54
2019-06-08T04:34:31.291Z,39.38
2019-06-08T04:37:01.231Z,39.76
2019-06-08T04:39:31.225Z,40.14
2019-06-08T04:42:01.222Z,40.48
2019-06-08T04:44:31.194Z,40.46
2019-06-08T04:47:01.191Z,40.11
2019-06-08T04:49:31.176Z,40.53
2019-06-08T04:52:01.109Z,41.01
2019-06-08T04:54:31.161Z,41.13
2019-06-08T04:57:01.147Z,40.75
2019-06-08T04:59:31.120Z,40.66
2019-06-08T05:02:01.131Z,40.82
2019-06-08T05:04:31.179Z,40.65
2019-06-08T05:07:01.201Z,41.77
2019-06-08T05:09:31.170Z,41.90
2019-06-08T05:12:01.190Z,40.69
2019-06-08T05:14:31.162Z,41.40
2019-06-08T05:17:01.232Z,40.87
2019-06-08T05:19:31.639Z,40.93
2019-06-08T05:22:02.373Z,40.92
2019-06-08T05:24:32.354Z,41.27
2019-06-08T05:27:02.357Z,41.56
2019-06-08T05:29:32.374Z,41.35
2019-06-08T05:32:02.348Z,41.51
2019-06-08T05:34:32.365Z,41.48
2019-06-08T05:37:02.342Z,41.85
2019-06-08T05:39:32.292Z,42.07
2019-06-08T05:42:02.270Z,41.71
2019-06-08T05:44:32.272Z,42.80
2019-06-08T05:47:02.319Z,43.19
2019-06-08T05:49:33.497Z,43.22
2019-06-08T05:52:03.464Z,43.06
2019-06-08T05:54:33.476Z,43.36
2019-06-08T05:57:03.546Z,42.82
2019-06-08T05:59:33.559Z,42.85
2019-06-08T06:02:03.470Z,42.74
2019-06-08T06:04:33.484Z,42.79
2019-06-08T06:07:03.533Z,42.71
2019-06-08T06:09:33.556Z,42.90
2019-06-08T06:12:03.570Z,42.65
2019-06-08T06:14:36.785Z,43.21
2019-06-08T06:17:05.241Z,42.98
2019-06-08T06:19:35.216Z,42.57
2019-06-08T06:22:05.287Z,42.45
2019-06-08T06:24:35.260Z,42.12
2019-06-08T06:27:05.266Z,42.62
2019-06-08T06:29:35.237Z,43.26
2019-06-08T06:32:05.647Z,42.16
2019-06-08T06:34:35.619Z,42.81
2019-06-08T06:37:05.627Z,42.83
2019-06-08T06:39:35.607Z,42.45
2019-06-08T06:42:05.616Z,43.05
2019-06-08T06:44:35.610Z,43.38
2019-06-08T06:47:05.592Z,43.32
2019-06-08T06:49:35.592Z,43.94
2019-06-08T06:52:05.602Z,44.35
2019-06-08T06:54:36.624Z,44.15
2019-06-08T06:57:06.662Z,44.42
2019-06-08T06:59:36.638Z,44.07
2019-06-08T07:02:06.646Z,44.81
2019-06-08T07:04:36.642Z,43.88
2019-06-08T07:07:06.649Z,44.13
2019-06-08T07:09:36.634Z,42.87
2019-06-08T07:12:06.612Z,43.32
2019-06-08T07:14:36.547Z,43.40
2019-06-08T07:17:06.515Z,43.97
2019-06-08T07:19:36.533Z,44.41
2019-06-08T07:22:06.497Z,45.17
2019-06-08T07:24:36.527Z,44.99
2019-06-08T07:27:07.546Z,43.37
2019-06-08T07:29:38.090Z,43.48
2019-06-08T07:32:08.063Z,43.15
2019-06-08T07:34:41.102Z,42.57
2019-06-08T07:37:09.673Z,42.38
2019-06-08T07:39:39.683Z,40.94
2019-06-08T07:42:09.668Z,43.19
2019-06-08T07:44:39.672Z,42.51
2019-06-08T07:47:09.650Z,42.09
2019-06-08T07:49:39.640Z,43.15
2019-06-08T07:52:10.980Z,41.81
2019-06-08T07:54:41.168Z,41.84
2019-06-08T07:57:11.171Z,42.08
2019-06-08T07:59:41.137Z,42.25
2019-06-08T08:02:11.136Z,41.25
2019-06-08T08:04:41.109Z,41.24
2019-06-08T08:07:11.111Z,41.53
2019-06-08T08:09:41.097Z,41.21
2019-06-08T08:12:12.297Z,40.46
2019-06-08T08:14:42.541Z,41.02
2019-06-08T08:17:12.550Z,40.73
2019-06-08T08:19:42.827Z,41.48
2019-06-08T08:22:25.930Z,40.55
2019-06-08T08:24:44.512Z,40.22
2019-06-08T08:27:14.526Z,40.01
2019-06-08T08:29:44.499Z,40.32
2019-06-08T08:32:14.503Z,40.19
2019-06-08T08:34:44.483Z,37.56
2019-06-08T08:37:14.487Z,35.47
2019-06-08T08:39:44.461Z,34.95
2019-06-08T08:42:14.458Z,32.97
2019-06-08T08:44:44.432Z,32.65
2019-06-08T08:47:14.454Z,33.36
2019-06-08T08:49:44.427Z,33.93
2019-06-08T08:52:14.504Z,33.71
2019-06-08T08:54:44.469Z,32.82
2019-06-08T08:57:14.482Z,32.67
2019-06-08T08:59:44.458Z,33.50
2019-06-08T09:02:14.471Z,34.65
2019-06-08T09:04:44.446Z,33.30
2019-06-08T09:07:14.465Z,33.89
2019-06-08T09:09:44.436Z,33.39
2019-06-08T09:12:14.387Z,33.54
2019-06-08T09:14:44.358Z,34.34
2019-06-08T09:17:14.358Z,35.42
2019-06-08T09:19:44.263Z,34.53
2019-06-08T09:22:14.266Z,34.11
2019-06-08T09:24:44.230Z,34.65
2019-06-08T09:27:14.238Z,32.63
2019-06-08T09:29:44.210Z,32.79
2019-06-08T09:32:14.209Z,31.73
2019-06-08T09:34:44.189Z,32.84
2019-06-08T09:37:14.265Z,31.24
2019-06-08T09:39:44.247Z,31.46
2019-06-08T09:42:14.315Z,31.90
2019-06-08T09:44:44.319Z,29.66
2019-06-08T09:47:14.300Z,30.17
2019-06-08T09:49:44.341Z,31.06
2019-06-08T09:52:14.369Z,31.76
2019-06-08T09:54:44.377Z,32.26
2019-06-08T09:57:14.342Z,30.35
2019-06-08T09:59:48.094Z,30.35
2019-06-08T10:02:18.467Z,31.82
2019-06-08T10:04:48.884Z,30.80
2019-06-08T10:07:18.910Z,30.89
2019-06-08T10:09:50.232Z,31.05
2019-06-08T10:12:20.354Z,30.21
2019-06-08T10:14:50.350Z,30.34
2019-06-08T10:17:21.090Z,28.54
2019-06-08T10:19:51.646Z,28.49
2019-06-08T10:22:21.652Z,30.01
2019-06-08T10:24:51.633Z,30.31
2019-06-08T10:27:21.637Z,30.37
2019-06-08T10:29:51.639Z,28.79
2019-06-08T10:32:23.253Z,29.61
2019-06-08T10:34:53.255Z,29.64
2019-06-08T10:37:23.239Z,29.95
2019-06-08T10:39:53.325Z,28.34
2019-06-08T10:42:23.277Z,29.07
2019-06-08T10:44:54.451Z,30.18
2019-06-08T10:47:24.419Z,28.32
2019-06-08T10:49:54.425Z,24.97
2019-06-08T10:52:24.390Z,23.29
2019-06-08T10:54:54.405Z,24.59
2019-06-08T10:57:24.357Z,24.80
2019-06-08T10:59:54.363Z,24.81
2019-06-08T11:02:24.342Z,25.17
2019-06-08T11:04:54.337Z,25.87
2019-06-08T11:07:24.310Z,25.36
2019-06-08T11:09:54.312Z,24.50
2019-06-08T11:12:24.284Z,25.61
2019-06-08T11:14:54.295Z,25.76
2019-06-08T11:17:24.259Z,26.78
2019-06-08T11:19:54.279Z,25.95
2019-06-08T11:22:24.323Z,26.91
2019-06-08T11:24:54.386Z,25.79
2019-06-08T11:27:24.318Z,25.62
2019-06-08T11:29:54.346Z,25.98
2019-06-08T11:32:24.238Z,26.70
2019-06-08T11:34:54.260Z,25.79
2019-06-08T11:37:24.224Z,25.41
2019-06-08T11:39:54.246Z,24.55
2019-06-08T11:42:26.268Z,25.27
2019-06-08T11:44:58.527Z,25.47
2019-06-08T11:47:27.755Z,24.99
2019-06-08T11:50:00.553Z,24.49
2019-06-08T11:52:31.020Z,24.29
2019-06-08T11:55:03.465Z,25.25
2019-06-08T11:57:34.204Z,24.65
2019-06-08T12:00:18.296Z,27.04
2019-06-08T12:02:38.325Z,25.13
2019-06-08T12:05:10.509Z,24.18
2019-06-08T12:07:38.318Z,24.58
2019-06-08T12:10:09.054Z,24.54
2019-06-08T12:12:38.489Z,25.22
2019-06-08T12:15:10.076Z,24.82
2019-06-08T12:17:38.221Z,23.47
2019-06-08T12:20:08.508Z,24.81
2019-06-08T12:22:37.708Z,24.09
2019-06-08T12:25:08.247Z,24.45
2019-06-08T12:27:40.089Z,24.89
2019-06-08T12:30:13.073Z,25.83
2019-06-08T12:32:38.101Z,24.31
2019-06-08T12:35:09.149Z,24.75
2019-06-08T12:37:38.696Z,25.38
2019-06-08T12:40:11.468Z,25.27
2019-06-08T12:42:38.352Z,24.80
2019-06-08T12:45:07.306Z,25.82
2019-06-08T12:47:38.148Z,25.16
2019-06-08T12:50:08.927Z,24.73
2019-06-08T12:52:39.123Z,22.62
2019-06-08T12:55:14.296Z,24.01
2019-06-08T12:57:38.802Z,24.32
2019-06-08T13:00:08.441Z,23.43
2019-06-08T13:02:38.506Z,23.76
2019-06-08T13:05:10.660Z,22.34
2019-06-08T13:07:38.624Z,23.26
2019-06-08T13:10:09.013Z,21.04
2019-06-08T13:12:40.933Z,21.86
2019-06-08T13:15:10.057Z,21.12
2019-06-08T13:17:39.737Z,22.27
2019-06-08T13:20:15.377Z,21.45
2019-06-08T13:22:44.176Z,20.85
2019-06-08T13:25:23.720Z,21.93
2019-06-08T13:27:44.120Z,22.69
2019-06-08T13:30:17.410Z,21.82
2019-06-08T13:32:43.772Z,22.88
2019-06-08T13:35:14.351Z,22.02
2019-06-08T13:37:43.220Z,21.98
2019-06-08T13:40:13.460Z,21.47
2019-06-08T13:42:42.292Z,22.31
2019-06-08T13:45:11.934Z,21.78
2019-06-08T13:47:41.455Z,21.47
2019-06-08T13:50:13.045Z,22.15
2019-06-08T13:52:42.447Z,21.96
2019-06-08T13:55:11.232Z,21.70
2019-06-08T13:57:40.022Z,21.92
2019-06-08T14:00:09.921Z,22.68
2019-06-08T14:02:39.885Z,22.25
2019-06-08T14:05:09.587Z,21.67
2019-06-08T14:07:38.492Z,23.42
2019-06-08T14:10:08.153Z,23.31
2019-06-08T14:12:38.469Z,21.61
2019-06-08T14:15:08.605Z,22.43
2019-06-08T14:17:37.939Z,22.26
2019-06-08T14:20:08.060Z,22.39
2019-06-08T14:22:38.790Z,23.53
2019-06-08T14:25:10.854Z,23.05
2019-06-08T14:27:39.648Z,23.23
2019-06-08T14:30:08.594Z,22.68
2019-06-08T14:32:38.109Z,22.13
2019-06-08T14:35:08.727Z,22.27
2019-06-08T14:37:39.191Z,22.12
2019-06-08T14:40:08.309Z,23.00
2019-06-08T14:42:38.402Z,23.45
2019-06-08T14:45:10.811Z,21.73
2019-06-08T14:47:38.792Z,21.97
2019-06-08T14:50:08.070Z,23.54
2019-06-08T14:52:38.192Z,22.97
2019-06-08T14:55:08.664Z,21.65
2019-06-08T14:57:40.116Z,21.18
2019-06-08T15:00:11.937Z,22.03
2019-06-08T15:02:38.956Z,22.08
2019-06-08T15:05:07.960Z,22.01
2019-06-08T15:07:38.836Z,22.46
2019-06-08T15:10:09.828Z,22.20
2019-06-08T15:12:38.421Z,22.36
2019-06-08T15:15:08.344Z,22.38
2019-06-08T15:17:38.178Z,22.25
2019-06-08T15:20:08.818Z,22.32
2019-06-08T15:22:38.927Z,22.53
2019-06-08T15:25:11.147Z,23.21
2019-06-08T15:27:39.181Z,23.18
2019-06-08T15:30:08.150Z,22.81
2019-06-08T15:32:38.631Z,22.32
2019-06-08T15:35:08.018Z,22.73
2019-06-08T15:37:38.097Z,22.74
2019-06-08T15:40:07.981Z,22.39
2019-06-08T15:42:37.380Z,21.73
2019-06-08T15:45:08.645Z,21.83
2019-06-08T15:47:40.553Z,22.44
2019-06-08T15:50:08.806Z,22.84
2019-06-08T15:52:38.068Z,23.60
2019-06-08T15:55:11.208Z,23.16
2019-06-08T15:57:41.304Z,23.11
2019-06-08T16:00:11.022Z,22.30
2019-06-08T16:02:39.881Z,22.41
2019-06-08T16:05:09.038Z,22.90
2019-06-08T16:07:37.772Z,22.84
2019-06-08T16:10:08.171Z,22.62
2019-06-08T16:12:36.972Z,23.00
2019-06-08T16:15:06.605Z,22.62
2019-06-08T16:17:35.643Z,22.11
2019-06-08T16:20:05.063Z,21.75
2019-06-08T16:22:35.986Z,21.71
2019-06-08T16:25:06.320Z,22.54
2019-06-08T16:27:35.999Z,22.70
2019-06-08T16:30:09.480Z,23.04
2019-06-08T16:32:36.778Z,23.17
2019-06-08T16:35:06.421Z,23.49
2019-06-08T16:37:35.744Z,23.00
2019-06-08T16:40:07.356Z,23.19
2019-06-08T16:42:36.921Z,22.74
2019-06-08T16:45:06.889Z,22.86
2019-06-08T16:47:35.700Z,22.57
2019-06-08T16:50:07.503Z,22.73
2019-06-08T16:52:36.734Z,22.78
2019-06-08T16:55:06.332Z,22.56
2019-06-08T16:57:38.282Z,22.96
2019-06-08T17:00:29.968Z,22.96
2019-06-08T17:02:37.262Z,22.75
2019-06-08T17:05:06.880Z,22.62
2019-06-08T17:07:35.686Z,23.05
2019-06-08T17:10:07.421Z,23.12
2019-06-08T17:12:37.021Z,23.71
2019-06-08T17:15:06.068Z,23.69
2019-06-08T17:17:36.350Z,24.30
2019-06-08T17:20:05.849Z,23.93
2019-06-08T17:22:34.747Z,23.73
2019-06-08T17:25:08.107Z,24.06
2019-06-08T17:27:36.750Z,24.58
2019-06-08T17:30:08.540Z,25.56
2019-06-08T17:32:38.480Z,25.16
2019-06-08T17:35:08.123Z,25.39
2019-06-08T17:37:38.000Z,25.15
2019-06-08T17:40:07.553Z,26.00
2019-06-08T17:42:37.491Z,25.41
2019-06-08T17:45:08.089Z,24.80
2019-06-08T17:47:36.892Z,24.36
2019-06-08T17:50:08.533Z,24.60
2019-06-08T17:52:37.337Z,25.27
2019-06-08T17:55:06.161Z,25.96
2019-06-08T17:57:47.184Z,26.45
2019-06-08T18:00:07.096Z,26.70
2019-06-08T18:02:39.837Z,26.67
2019-06-08T18:05:07.073Z,26.91
2019-06-08T18:07:38.512Z,27.45
2019-06-08T18:10:07.224Z,27.82
2019-06-08T18:12:40.841Z,28.13
2019-06-08T18:15:08.109Z,28.17
2019-06-08T18:17:40.808Z,28.22
2019-06-08T18:20:12.724Z,28.38
2019-06-08T18:22:43.128Z,27.84
2019-06-08T18:25:12.270Z,28.44
2019-06-08T18:27:46.434Z,28.39
2019-06-08T18:30:13.127Z,28.67
2019-06-08T18:32:42.471Z,29.17
2019-06-08T18:35:12.341Z,29.61
2019-06-08T18:37:42.537Z,29.90
2019-06-08T18:40:12.772Z,29.59
2019-06-08T18:42:42.723Z,29.83
2019-06-08T18:45:12.837Z,30.31
2019-06-08T18:47:42.389Z,30.51
2019-06-08T18:50:12.484Z,31.06
2019-06-08T18:52:44.907Z,31.43
2019-06-08T18:55:12.948Z,32.05
2019-06-08T18:57:42.697Z,32.01
2019-06-08T19:00:12.578Z,32.06
2019-06-08T19:02:43.733Z,32.33
2019-06-08T19:05:11.957Z,32.75
2019-06-08T19:07:41.589Z,32.90
2019-06-08T19:10:11.825Z,32.79
2019-06-08T19:12:41.826Z,33.41
2019-06-08T19:15:11.435Z,34.24
2019-06-08T19:17:48.260Z,34.96
2019-06-08T19:20:11.144Z,35.31
2019-06-08T19:22:43.739Z,35.86
2019-06-08T19:25:10.468Z,36.08
2019-06-08T19:27:45.121Z,36.48
2019-06-08T19:30:09.937Z,36.83
2019-06-08T19:32:40.393Z,37.09
2019-06-08T19:35:09.225Z,37.24
2019-06-08T19:37:38.125Z,37.51
2019-06-08T19:40:07.528Z,37.73
2019-06-08T19:42:44.766Z,37.90
2019-06-08T19:45:08.769Z,38.08
2019-06-08T19:47:38.414Z,38.42
2019-06-08T19:50:08.487Z,38.55
2019-06-08T19:52:40.001Z,38.65
2019-06-08T19:55:08.213Z,38.75
2019-06-08T19:57:37.013Z,38.63
2019-06-08T20:00:07.464Z,38.87
2019-06-08T20:02:36.612Z,39.53
2019-06-08T20:05:07.592Z,39.43
2019-06-08T20:07:37.893Z,39.38
2019-06-08T20:10:09.904Z,39.08
2019-06-08T20:12:38.729Z,39.42
2019-06-08T20:15:08.664Z,39.45
2019-06-08T20:17:37.966Z,39.94
2019-06-08T20:20:10.685Z,40.42
2019-06-08T20:22:38.064Z,40.75
2019-06-08T20:25:10.489Z,41.00
2019-06-08T20:27:38.047Z,41.10
2019-06-08T20:30:09.570Z,41.41
2019-06-08T20:32:37.923Z,41.64
2019-06-08T20:35:07.999Z,41.97
2019-06-08T20:37:38.094Z,42.11
2019-06-08T20:40:13.599Z,42.31
2019-06-08T20:42:38.003Z,42.52
2019-06-08T20:45:08.143Z,42.37
2019-06-08T20:47:39.091Z,42.49
2019-06-08T20:50:07.808Z,42.68
2019-06-08T20:52:37.760Z,43.67
2019-06-08T20:55:07.949Z,43.36
2019-06-08T20:57:37.003Z,43.46
2019-06-08T21:00:09.161Z,43.92
2019-06-08T21:02:37.332Z,43.82
2019-06-08T21:05:07.806Z,43.99
2019-06-08T21:07:36.636Z,43.70
2019-06-08T21:10:08.620Z,43.80
2019-06-08T21:12:37.958Z,44.28
2019-06-08T21:15:07.158Z,44.25
2019-06-08T21:17:38.446Z,44.51
2019-06-08T21:20:08.525Z,44.27
2019-06-08T21:22:37.621Z,44.78
2019-06-08T21:25:08.598Z,44.96
2019-06-08T21:27:38.523Z,44.63
2019-06-08T21:30:19.933Z,44.50
2019-06-08T21:32:38.669Z,44.38
2019-06-08T21:35:07.731Z,44.56
2019-06-08T21:37:37.714Z,45.03
2019-06-08T21:40:08.543Z,45.06
2019-06-08T21:42:37.425Z,45.08
2019-06-08T21:45:09.524Z,44.57
2019-06-08T21:47:37.811Z,44.31
2019-06-08T21:50:08.281Z,45.06
2019-06-08T21:52:37.087Z,45.66
2019-06-08T21:55:07.348Z,45.62
2019-06-08T21:57:37.112Z,45.80
2019-06-08T22:00:26.784Z,45.99
2019-06-08T22:02:40.268Z,46.79
2019-06-08T22:05:09.270Z,46.93
2019-06-08T22:07:39.156Z,47.16
2019-06-08T22:10:09.465Z,47.25
2019-06-08T22:12:40.366Z,47.30
2019-06-08T22:15:08.778Z,47.53
2019-06-08T22:17:38.303Z,47.92
2019-06-08T22:20:08.320Z,47.93
2019-06-08T22:22:37.835Z,47.94
2019-06-08T22:25:08.149Z,48.07
2019-06-08T22:27:38.200Z,47.72
2019-06-08T22:30:13.352Z,48.00
2019-06-08T22:32:38.503Z,47.85
2019-06-08T22:35:08.137Z,48.14
2019-06-08T22:37:38.060Z,47.89
2019-06-08T22:40:08.228Z,47.75
2019-06-08T22:42:37.743Z,47.69
2019-06-08T22:45:08.285Z,47.79
2019-06-08T22:47:38.716Z,47.87
2019-06-08T22:50:08.425Z,48.48
2019-06-08T22:52:37.681Z,47.67
2019-06-08T22:55:10.530Z,47.21
2019-06-08T22:57:37.749Z,47.83
2019-06-08T23:00:14.497Z,48.13
2019-06-08T23:02:38.812Z,48.15
2019-06-08T23:05:09.101Z,48.36
2019-06-08T23:07:38.165Z,48.18
2019-06-08T23:10:09.030Z,48.27
2019-06-08T23:12:38.184Z,48.08
2019-06-08T23:15:08.233Z,47.30
2019-06-08T23:17:38.742Z,46.49
2019-06-08T23:20:08.720Z,46.18
2019-06-08T23:22:38.693Z,46.59
2019-06-08T23:25:09.272Z,46.71
2019-06-08T23:27:38.386Z,46.95
2019-06-08T23:30:10.221Z,47.15
2019-06-08T23:32:39.092Z,47.06
2019-06-08T23:35:09.354Z,47.19
2019-06-08T23:37:38.346Z,47.50
2019-06-08T23:40:07.730Z,47.52
2019-06-08T23:42:38.406Z,47.41
2019-06-08T23:45:10.377Z,47.13
2019-06-08T23:47:38.807Z,47.18
2019-06-08T23:50:10.076Z,47.16
2019-06-08T23:52:38.452Z,47.15
2019-06-08T23:55:10.493Z,47.09
2019-06-08T23:57:38.248Z,47.05
